Terminal Aerodrome Forecast
Issued by NWS Albuquerque, NM

Home | Current Version | Previous Version | Text Only | Print | Product List | Glossary On
Versions: 1 2 3 4 5 6 7 8 9 10 11 12 13 14 15 16
000
FTUS45 KABQ 011722
TAFABQ
TAF
KABQ 011722Z 0118/0218 26006KT P6SM VCSH FEW080
     FM012200 24007KT P6SM VCTS BKN080CB
     FM020100 28012KT P6SM VCSH OVC070
     FM020300 35010KT P6SM BKN070
     FM020500 36005KT P6SM BKN100=

USA.gov is the U.S. government's official web portal to all federal, state and local government web resources and services.